Impacts METAR Board
IDs:

KCVG - Cincinnati Intl, KY, US

Updated at: 1900 UTC 23 Sep 2018
Potential Impact None Slight Moderate High
Time 23/07Z 23/08Z 23/09Z 23/10Z 23/11Z 23/12Z 23/13Z 23/14Z 23/15Z 23/16Z 23/17Z 23/18Z 23/19Z
Temp59 58 58 59 59 59 59 59 60 60 63 67 70
Dewpt55 55 55 55 55 55 56 56 56 57 59 60 61
Altim30.13 30.12 30.11 30.11 30.10 30.11 30.12 30.13 30.16 30.15 30.14 30.13 30.10
VIS10 10 10 10 10 10 10 10 10 4 10 10 10
CIG55 90 55 49 34 60 33 9 10 40 43 50 75
CoverBKNOVCOVCOVCOVCOVCOVCOVCOVCOVCOVCBKNBKN
FltCatVFRVFRVFRVFRVFRVFRVFRIFRMVFRMVFRVFRVFRVFR
WX-------------------RA BR------
WDir80707050605050503070507050
WSpd9 9 7 6 9 7 7 7 9 9 7 10 10
WGst-- -- -- -- -- -- -- -- -- -- -- -- --
Raw hourly METARs
KCVG 230652Z 08009KT 10SM BKN055 15/13 A3013 RMK AO2 SLP199 T01500128
KCVG 230752Z 07009KT 10SM SCT065 BKN090 OVC110 14/13 A3012 RMK AO2 SLP196 T01440128
KCVG 230852Z 07007KT 10SM SCT034 OVC055 14/13 A3011 RMK AO2 SLP191 T01440128 58009
KCVG 230952Z 05006KT 10SM SCT037 OVC049 15/13 A3011 RMK AO2 SLP190 T01500128
KCVG 231052Z 06009KT 10SM BKN034 OVC050 15/13 A3010 RMK AO2 SLP188 T01500128
KCVG 231152Z 05007KT 10SM SCT033 BKN060 OVC140 15/13 A3011 RMK AO2 SLP190 70016 T01500128 10150 20144 55001
KCVG 231252Z 05007KT 10SM SCT009 OVC033 15/13 A3012 RMK AO2 SLP194 T01500133
KCVG 231352Z 05007KT 10SM BKN009 OVC031 15/13 A3013 RMK AO2 SLP200 VIRGA S T01500133
KCVG 231452Z 03009KT 10SM OVC010 16/13 A3016 RMK AO2 SLP207 VIRGA S T01560133 53017
KCVG 231552Z 07009KT 4SM -RA BR SCT010 BKN040 OVC060 16/14 A3015 RMK AO2 RAB28 CIG 009 36R SLP206 VIS S-SE 1/2 P0000 T01560139
KCVG 231652Z 05007KT 10SM FEW012 BKN043 OVC055 17/15 A3014 RMK AO2 RAE21 SLP202 BINOVC P0000 T01720150
KCVG 231752Z 07010KT 10SM SCT042 BKN050 BKN075 19/16 A3013 RMK AO2 SLP196 60000 T01940156 10194 20144 58010
KCVG 231852Z 05010KT 10SM FEW035 BKN075 BKN250 21/16 A3010 RMK AO2 SLP186 T02110161



Page loaded:  19:45 UTC  |   12:45 PM Pacific  |   01:45 PM Mountain  |   02:45 PM Central  |   03:45 PM Eastern

 

ADVISORIES

FORECASTS

FORECASTS

OBSERVATIONS

USER TOOLS

ABOUT US